createdAt,value
2022-11-05T00:00:37.314Z,9.90
2022-11-05T00:03:23.182Z,10.00
2022-11-05T00:06:11.482Z,10.00
2022-11-05T00:08:57.550Z,10.00
2022-11-05T00:11:44.210Z,9.90
2022-11-05T00:14:29.655Z,9.90
2022-11-05T00:16:56.316Z,10.00
2022-11-05T00:19:22.969Z,9.90
2022-11-05T00:22:08.467Z,9.90
2022-11-05T00:24:53.634Z,9.80
2022-11-05T00:27:20.302Z,9.90
2022-11-05T00:29:46.961Z,9.90
2022-11-05T00:32:13.651Z,9.90
2022-11-05T00:34:40.303Z,9.90
2022-11-05T00:37:06.964Z,9.80
2022-11-05T00:39:33.688Z,9.80
2022-11-05T00:42:19.185Z,9.80
2022-11-05T00:45:00.890Z,9.80
2022-11-05T00:47:46.135Z,9.80
2022-11-05T00:50:13.224Z,9.70
2022-11-05T00:53:00.347Z,9.70
2022-11-05T00:55:29.911Z,9.80
2022-11-05T00:57:57.766Z,9.80
2022-11-05T01:00:27.415Z,9.70
2022-11-05T01:02:57.057Z,9.70
2022-11-05T01:05:23.835Z,9.70
2022-11-05T01:07:53.151Z,9.80
2022-11-05T01:10:20.709Z,9.80
2022-11-05T01:12:47.713Z,9.80
2022-11-05T01:15:14.526Z,9.80
2022-11-05T01:17:41.254Z,9.70
2022-11-05T01:20:08.593Z,9.70
2022-11-05T01:22:35.332Z,9.60
2022-11-05T01:25:01.990Z,9.60
2022-11-05T01:27:28.843Z,9.60
2022-11-05T01:29:55.513Z,9.80
2022-11-05T01:32:22.210Z,9.60
2022-11-05T01:34:48.946Z,9.70
2022-11-05T01:37:15.627Z,9.60
2022-11-05T01:39:42.341Z,9.60
2022-11-05T01:42:22.178Z,9.60
2022-11-05T01:45:01.227Z,9.60
2022-11-05T01:47:34.728Z,9.60
2022-11-05T01:50:06.954Z,9.70
2022-11-05T01:52:35.725Z,9.60
2022-11-05T01:55:04.031Z,9.60
2022-11-05T01:57:32.630Z,9.60
2022-11-05T02:00:01.382Z,9.60
2022-11-05T02:02:28.918Z,9.60
2022-11-05T02:05:00.682Z,9.70
2022-11-05T02:07:28.869Z,9.70
2022-11-05T02:10:04.736Z,9.60
2022-11-05T02:12:33.269Z,9.50
2022-11-05T02:15:00.161Z,9.40
2022-11-05T02:17:45.358Z,9.50
2022-11-05T02:20:30.092Z,9.60
2022-11-05T02:23:24.690Z,9.60
2022-11-05T02:25:51.323Z,9.60
2022-11-05T02:28:45.919Z,9.60
2022-11-05T02:31:12.623Z,9.60
2022-11-05T02:33:43.881Z,9.60
2022-11-05T02:36:23.336Z,9.60
2022-11-05T02:39:02.105Z,9.50
2022-11-05T02:41:49.786Z,9.50
2022-11-05T02:44:50.470Z,9.50
2022-11-05T02:47:37.564Z,9.50
2022-11-05T02:50:30.085Z,9.50
2022-11-05T02:53:07.786Z,9.50
2022-11-05T02:55:43.372Z,9.60
2022-11-05T02:58:11.362Z,9.60
2022-11-05T03:00:51.316Z,9.50
2022-11-05T03:03:31.112Z,9.50
2022-11-05T03:06:22.920Z,9.50
2022-11-05T03:09:13.573Z,9.50
2022-11-05T03:11:51.478Z,9.50
2022-11-05T03:14:29.730Z,9.50
2022-11-05T03:17:21.131Z,9.50
2022-11-05T03:19:58.834Z,9.50
2022-11-05T03:22:31.106Z,9.50
2022-11-05T03:25:03.140Z,9.50
2022-11-05T03:27:34.586Z,9.50
2022-11-05T03:30:06.243Z,9.50
2022-11-05T03:32:35.950Z,9.50
2022-11-05T03:35:08.535Z,9.50
2022-11-05T03:37:39.596Z,9.40
2022-11-05T03:40:08.478Z,9.40
2022-11-05T03:42:40.828Z,9.40
2022-11-05T03:45:16.198Z,9.50
2022-11-05T03:47:45.989Z,9.40
2022-11-05T03:50:34.665Z,9.40
2022-11-05T03:53:26.022Z,9.40
2022-11-05T03:56:18.734Z,9.50
2022-11-05T03:58:46.469Z,9.50
2022-11-05T04:01:13.882Z,9.50
2022-11-05T04:03:40.571Z,9.50
2022-11-05T04:06:28.466Z,9.60
2022-11-05T04:09:13.942Z,9.50
2022-11-05T04:11:59.591Z,9.50
2022-11-05T04:14:26.372Z,9.60
2022-11-05T04:17:09.383Z,9.50
2022-11-05T04:19:56.396Z,9.50
2022-11-05T04:22:43.342Z,9.50
2022-11-05T04:25:10.734Z,9.50
2022-11-05T04:27:37.486Z,9.60
2022-11-05T04:30:21.478Z,9.60
2022-11-05T04:33:12.891Z,9.60
2022-11-05T04:35:45.437Z,9.60
2022-11-05T04:38:17.428Z,9.60
2022-11-05T04:40:45.516Z,9.60
2022-11-05T04:43:15.526Z,9.60
2022-11-05T04:45:42.821Z,9.50
2022-11-05T04:48:09.946Z,9.50
2022-11-05T04:50:37.184Z,9.50
2022-11-05T04:53:04.039Z,9.50
2022-11-05T04:55:31.226Z,9.50
2022-11-05T04:57:57.919Z,9.50
2022-11-05T05:00:24.931Z,9.50
2022-11-05T05:02:51.847Z,9.40
2022-11-05T05:05:18.699Z,9.50
2022-11-05T05:07:45.631Z,9.50
2022-11-05T05:10:12.681Z,9.50
2022-11-05T05:12:39.632Z,9.50
2022-11-05T05:15:06.779Z,9.50
2022-11-05T05:17:33.457Z,9.50
2022-11-05T05:20:18.916Z,9.50
2022-11-05T05:22:55.109Z,9.50
2022-11-05T05:25:22.743Z,9.50
2022-11-05T05:27:49.540Z,9.50
2022-11-05T05:30:16.451Z,9.60
2022-11-05T05:32:43.296Z,9.60
2022-11-05T05:35:10.396Z,9.60
2022-11-05T05:37:37.244Z,9.60
2022-11-05T05:40:04.537Z,9.60
2022-11-05T05:42:31.214Z,9.60
2022-11-05T05:44:57.911Z,9.60
2022-11-05T05:47:24.589Z,9.60
2022-11-05T05:49:51.240Z,9.60
2022-11-05T05:52:18.030Z,9.60
2022-11-05T05:54:44.710Z,9.60
2022-11-05T05:57:11.492Z,9.50
2022-11-05T05:59:38.161Z,9.50
2022-11-05T06:02:04.940Z,9.50
2022-11-05T06:04:31.713Z,9.50
2022-11-05T06:06:58.411Z,9.60
2022-11-05T06:09:25.085Z,9.50
2022-11-05T06:11:51.780Z,9.60
2022-11-05T06:14:18.522Z,9.50
2022-11-05T06:16:45.466Z,9.60
2022-11-05T06:19:13.078Z,9.50
2022-11-05T06:21:39.796Z,9.50
2022-11-05T06:24:06.917Z,9.50
2022-11-05T06:26:33.594Z,9.50
2022-11-05T06:29:00.288Z,9.50
2022-11-05T06:31:26.961Z,9.50
2022-11-05T06:33:53.723Z,9.50
2022-11-05T06:36:20.598Z,9.50
2022-11-05T06:38:47.493Z,9.50
2022-11-05T06:41:14.389Z,9.40
2022-11-05T06:43:41.485Z,9.40
2022-11-05T06:46:09.595Z,9.40
2022-11-05T06:48:36.321Z,9.40
2022-11-05T06:51:04.232Z,9.50
2022-11-05T06:53:31.699Z,9.50
2022-11-05T06:56:01.607Z,9.40
2022-11-05T06:58:28.374Z,9.30
2022-11-05T07:01:00.720Z,9.20
2022-11-05T07:03:27.461Z,9.30
2022-11-05T07:05:54.547Z,9.40
2022-11-05T07:08:21.275Z,9.40
2022-11-05T07:10:48.625Z,9.40
2022-11-05T07:13:16.036Z,9.50
2022-11-05T07:15:43.215Z,9.50
2022-11-05T07:18:09.935Z,9.50
2022-11-05T07:20:36.588Z,10.10
2022-11-05T07:23:05.878Z,11.10
2022-11-05T07:25:33.862Z,10.40
2022-11-05T07:28:01.152Z,10.00
2022-11-05T07:30:29.110Z,10.00
2022-11-05T07:32:56.029Z,9.80
2022-11-05T07:35:22.958Z,9.80
2022-11-05T07:37:52.156Z,9.80
2022-11-05T07:40:19.389Z,9.80
2022-11-05T07:42:48.305Z,10.10
2022-11-05T07:45:15.563Z,10.20
2022-11-05T07:47:50.309Z,9.80
2022-11-05T07:50:18.497Z,9.60
2022-11-05T07:52:45.679Z,9.70
2022-11-05T07:55:13.295Z,9.70
2022-11-05T07:57:46.957Z,9.60
2022-11-05T08:00:16.632Z,9.70
2022-11-05T08:02:43.575Z,9.70
2022-11-05T08:05:10.790Z,9.60
2022-11-05T08:07:37.454Z,9.60
2022-11-05T08:10:04.633Z,9.50
2022-11-05T08:12:33.550Z,9.60
2022-11-05T08:15:00.210Z,9.60
2022-11-05T08:17:26.950Z,9.50
2022-11-05T08:19:53.631Z,9.50
2022-11-05T08:22:20.441Z,9.60
2022-11-05T08:24:47.173Z,9.70
2022-11-05T08:27:14.243Z,9.80
2022-11-05T08:29:41.027Z,9.70
2022-11-05T08:32:07.753Z,9.70
2022-11-05T08:34:34.398Z,9.70
2022-11-05T08:37:01.957Z,9.80
2022-11-05T08:39:28.802Z,9.90
2022-11-05T08:41:55.814Z,9.90
2022-11-05T08:44:22.475Z,9.70
2022-11-05T08:46:49.343Z,9.90
2022-11-05T08:49:15.997Z,9.80
2022-11-05T08:51:44.865Z,9.80
2022-11-05T08:54:11.543Z,9.80
2022-11-05T08:56:38.340Z,9.90
2022-11-05T08:59:05.136Z,9.90
2022-11-05T09:01:33.873Z,9.90
2022-11-05T09:04:00.905Z,9.90
2022-11-05T09:06:28.037Z,10.00
2022-11-05T09:08:54.948Z,9.90
2022-11-05T09:11:21.816Z,9.90
2022-11-05T09:13:48.566Z,9.90
2022-11-05T09:16:24.828Z,10.00
2022-11-05T09:18:52.060Z,10.10
2022-11-05T09:21:19.378Z,10.20
2022-11-05T09:23:46.830Z,10.10
2022-11-05T09:26:14.392Z,10.00
2022-11-05T09:28:41.092Z,10.10
2022-11-05T09:31:09.811Z,10.20
2022-11-05T09:33:38.344Z,10.30
2022-11-05T09:36:06.123Z,10.40
2022-11-05T09:38:35.410Z,10.50
2022-11-05T09:41:08.588Z,10.50
2022-11-05T09:43:43.173Z,10.60
2022-11-05T09:46:17.705Z,10.60
2022-11-05T09:48:47.986Z,10.60
2022-11-05T09:51:23.711Z,10.70
2022-11-05T09:53:51.373Z,10.70
2022-11-05T09:56:26.270Z,10.70
2022-11-05T09:59:18.827Z,10.70
2022-11-05T10:01:46.336Z,10.80
2022-11-05T10:04:20.309Z,10.90
2022-11-05T10:06:55.246Z,11.00
2022-11-05T10:09:29.823Z,11.10
2022-11-05T10:12:07.496Z,11.00
2022-11-05T10:14:41.434Z,10.90
2022-11-05T10:17:22.407Z,10.80
2022-11-05T10:20:00.011Z,10.90
2022-11-05T10:22:26.757Z,11.00
2022-11-05T10:24:54.890Z,11.00
2022-11-05T10:27:33.404Z,11.20
2022-11-05T10:30:00.583Z,11.30
2022-11-05T10:32:39.583Z,11.20
2022-11-05T10:35:08.598Z,11.10
2022-11-05T10:37:40.638Z,11.20
2022-11-05T10:40:26.855Z,11.40
2022-11-05T10:43:08.779Z,11.30
2022-11-05T10:45:40.095Z,11.60
2022-11-05T10:48:30.770Z,11.50
2022-11-05T10:50:57.881Z,11.40
2022-11-05T10:53:31.015Z,11.30
2022-11-05T10:56:00.935Z,11.30
2022-11-05T10:58:30.323Z,11.40
2022-11-05T11:00:56.956Z,11.50
2022-11-05T11:03:44.734Z,11.40
2022-11-05T11:06:27.640Z,11.30
2022-11-05T11:08:57.747Z,11.30
2022-11-05T11:11:37.781Z,11.30
2022-11-05T11:14:04.432Z,11.20
2022-11-05T11:16:41.750Z,11.30
2022-11-05T11:19:28.879Z,11.30
2022-11-05T11:22:04.457Z,11.40
2022-11-05T11:24:38.006Z,11.40
2022-11-05T11:27:26.446Z,11.60
2022-11-05T11:30:01.694Z,12.00
2022-11-05T11:32:34.618Z,12.00
2022-11-05T11:35:02.037Z,11.90
2022-11-05T11:37:34.897Z,11.80
2022-11-05T11:40:19.369Z,11.60
2022-11-05T11:42:50.297Z,11.50
2022-11-05T11:45:32.272Z,11.50
2022-11-05T11:48:04.133Z,11.30
2022-11-05T11:50:38.411Z,11.40
2022-11-05T11:53:19.836Z,11.20
2022-11-05T11:55:55.581Z,11.20
2022-11-05T11:58:25.249Z,11.20
2022-11-05T12:01:04.154Z,11.10
2022-11-05T12:03:45.776Z,11.20
2022-11-05T12:06:43.612Z,11.00
2022-11-05T12:09:36.208Z,11.20
2022-11-05T12:12:14.117Z,11.40
2022-11-05T12:15:08.181Z,11.70
2022-11-05T12:18:15.749Z,12.10
2022-11-05T12:21:07.682Z,12.20
2022-11-05T12:23:58.725Z,12.70
2022-11-05T12:26:52.254Z,13.00
2022-11-05T12:29:19.570Z,13.50
2022-11-05T12:32:04.399Z,13.70
2022-11-05T12:35:03.414Z,13.60
2022-11-05T12:37:30.663Z,13.90
2022-11-05T12:40:07.642Z,14.10
2022-11-05T12:42:43.212Z,13.40
2022-11-05T12:45:28.997Z,13.20
2022-11-05T12:48:07.947Z,13.10
2022-11-05T12:50:56.909Z,12.90
2022-11-05T12:53:29.572Z,12.80
2022-11-05T12:56:00.429Z,12.50
2022-11-05T12:58:52.299Z,12.40
2022-11-05T13:01:33.789Z,12.40
2022-11-05T13:04:14.177Z,12.30
2022-11-05T13:06:44.291Z,12.40
2022-11-05T13:09:24.340Z,12.40
2022-11-05T13:11:58.716Z,12.40
2022-11-05T13:14:38.745Z,12.30
2022-11-05T13:17:13.425Z,12.20
2022-11-05T13:19:53.080Z,12.10
2022-11-05T13:22:39.959Z,12.10
2022-11-05T13:25:31.986Z,12.10
2022-11-05T13:28:32.923Z,12.10
2022-11-05T13:31:03.284Z,12.10
2022-11-05T13:33:41.351Z,12.00
2022-11-05T13:36:48.966Z,12.00
2022-11-05T13:39:31.716Z,11.90
2022-11-05T13:42:13.423Z,11.80
2022-11-05T13:44:58.230Z,11.80
2022-11-05T13:47:58.554Z,11.90
2022-11-05T13:50:44.091Z,11.80
2022-11-05T13:53:25.954Z,11.80
2022-11-05T13:55:59.223Z,11.80
2022-11-05T13:58:50.169Z,11.90
2022-11-05T14:01:28.779Z,12.00
2022-11-05T14:03:56.633Z,12.00
2022-11-05T14:06:33.215Z,12.30
2022-11-05T14:09:09.852Z,12.50
2022-11-05T14:11:42.757Z,12.40
2022-11-05T14:14:19.022Z,12.40
2022-11-05T14:17:07.172Z,12.30
2022-11-05T14:19:51.924Z,12.20
2022-11-05T14:22:44.763Z,12.20
2022-11-05T14:25:17.395Z,12.30
2022-11-05T14:27:47.081Z,12.30
2022-11-05T14:30:41.809Z,12.50
2022-11-05T14:33:38.603Z,12.50
2022-11-05T14:36:20.635Z,12.50
2022-11-05T14:38:51.047Z,12.40
2022-11-05T14:41:18.215Z,12.20
2022-11-05T14:43:51.627Z,12.20
2022-11-05T14:46:18.441Z,12.10
2022-11-05T14:48:50.476Z,12.10
2022-11-05T14:51:26.201Z,12.10
2022-11-05T14:54:06.444Z,12.10
2022-11-05T14:56:54.978Z,11.90
2022-11-05T14:59:28.112Z,11.70
2022-11-05T15:02:02.942Z,11.80
2022-11-05T15:04:42.524Z,11.70
2022-11-05T15:07:09.107Z,11.40
2022-11-05T15:09:44.861Z,11.40
2022-11-05T15:12:17.285Z,11.40
2022-11-05T15:14:58.005Z,11.20
2022-11-05T15:17:37.357Z,11.20
2022-11-05T15:20:06.769Z,11.00
2022-11-05T15:22:38.126Z,10.90
2022-11-05T15:25:14.279Z,10.60
2022-11-05T15:27:49.679Z,10.40
2022-11-05T15:30:21.824Z,10.30
2022-11-05T15:32:48.802Z,10.20
2022-11-05T15:35:23.385Z,10.20
2022-11-05T15:37:55.959Z,10.00
2022-11-05T15:40:30.735Z,10.00
2022-11-05T15:43:16.365Z,10.00
2022-11-05T15:45:44.211Z,9.80
2022-11-05T15:48:18.707Z,9.70
2022-11-05T15:50:45.795Z,9.70
2022-11-05T15:53:44.075Z,9.60
2022-11-05T15:56:14.972Z,9.60
2022-11-05T15:58:47.977Z,9.80
2022-11-05T16:01:24.496Z,9.70
2022-11-05T16:03:53.803Z,9.60
2022-11-05T16:06:21.162Z,9.40
2022-11-05T16:08:49.495Z,9.40
2022-11-05T16:11:25.989Z,9.40
2022-11-05T16:13:53.802Z,9.40
2022-11-05T16:16:21.090Z,9.30
2022-11-05T16:18:48.159Z,9.20
2022-11-05T16:21:22.606Z,9.30
2022-11-05T16:23:49.228Z,9.20
2022-11-05T16:27:00.624Z,9.10
2022-11-05T16:29:23.474Z,9.10
2022-11-05T16:31:52.628Z,9.10
2022-11-05T16:34:25.574Z,9.00
2022-11-05T16:36:55.275Z,9.00
2022-11-05T16:39:21.907Z,8.90
2022-11-05T16:41:49.353Z,8.80
2022-11-05T16:44:16.138Z,8.90
2022-11-05T16:46:49.376Z,8.90
2022-11-05T16:49:17.411Z,8.80
2022-11-05T16:51:44.668Z,8.90
2022-11-05T16:54:11.344Z,8.80
2022-11-05T16:56:39.872Z,8.80
2022-11-05T16:59:10.424Z,8.80
2022-11-05T17:01:40.386Z,8.70
2022-11-05T17:04:11.047Z,8.70
2022-11-05T17:06:37.679Z,8.70
2022-11-05T17:09:04.331Z,8.60
2022-11-05T17:11:31.119Z,8.60
2022-11-05T17:13:57.778Z,8.60
2022-11-05T17:16:26.246Z,8.60
2022-11-05T17:18:52.914Z,8.50
2022-11-05T17:21:19.582Z,8.40
2022-11-05T17:23:46.252Z,8.40
2022-11-05T17:26:14.027Z,8.40
2022-11-05T17:28:41.179Z,8.40
2022-11-05T17:31:11.480Z,8.40
2022-11-05T17:33:38.234Z,8.30
2022-11-05T17:36:10.110Z,8.30
2022-11-05T17:38:37.101Z,8.30
2022-11-05T17:41:11.746Z,8.30
2022-11-05T17:43:38.403Z,8.40
2022-11-05T17:46:08.979Z,8.20
2022-11-05T17:48:36.981Z,8.10
2022-11-05T17:51:04.435Z,8.10
2022-11-05T17:53:31.260Z,8.10
2022-11-05T17:55:58.175Z,8.10
2022-11-05T17:58:24.881Z,8.10
2022-11-05T18:00:51.662Z,8.10
2022-11-05T18:03:18.348Z,8.20
2022-11-05T18:05:45.130Z,8.10
2022-11-05T18:08:12.491Z,8.00
2022-11-05T18:10:40.593Z,8.00
2022-11-05T18:13:07.569Z,8.00
2022-11-05T18:15:36.272Z,8.00
2022-11-05T18:18:02.968Z,8.10
2022-11-05T18:20:29.660Z,8.10
2022-11-05T18:22:56.306Z,7.90
2022-11-05T18:25:23.005Z,7.80
2022-11-05T18:27:49.649Z,7.70
2022-11-05T18:30:16.878Z,7.70
2022-11-05T18:32:45.383Z,7.60
2022-11-05T18:35:13.625Z,7.60
2022-11-05T18:37:40.700Z,7.70
2022-11-05T18:40:08.079Z,7.60
2022-11-05T18:42:34.880Z,7.50
2022-11-05T18:45:01.601Z,7.70
2022-11-05T18:47:28.242Z,7.90
2022-11-05T18:49:54.886Z,8.10
2022-11-05T18:52:21.536Z,8.10
2022-11-05T18:54:48.236Z,8.00
2022-11-05T18:57:14.853Z,8.10
2022-11-05T18:59:46.501Z,7.70
2022-11-05T19:02:14.347Z,7.90
2022-11-05T19:05:00.417Z,7.90
2022-11-05T19:07:28.633Z,7.90
2022-11-05T19:09:55.467Z,8.00
2022-11-05T19:12:22.205Z,7.80
2022-11-05T19:14:48.821Z,7.90
2022-11-05T19:17:15.509Z,7.70
2022-11-05T19:19:42.164Z,7.80
2022-11-05T19:22:08.889Z,7.80
2022-11-05T19:24:35.598Z,7.60
2022-11-05T19:27:02.266Z,7.60
2022-11-05T19:29:29.228Z,7.50
2022-11-05T19:31:55.987Z,7.60
2022-11-05T19:34:22.639Z,7.40
2022-11-05T19:36:49.292Z,7.50
2022-11-05T19:39:15.959Z,7.80
2022-11-05T19:41:42.861Z,7.60
2022-11-05T19:44:10.360Z,7.50
2022-11-05T19:46:37.060Z,7.40
2022-11-05T19:49:03.759Z,7.30
2022-11-05T19:51:32.261Z,7.30
2022-11-05T19:54:00.890Z,7.20
2022-11-05T19:56:30.152Z,7.20
2022-11-05T19:58:58.423Z,7.10
2022-11-05T20:01:27.423Z,7.10
2022-11-05T20:03:55.964Z,7.10
2022-11-05T20:06:31.995Z,7.10
2022-11-05T20:11:48.721Z,7.10
2022-11-05T20:14:15.469Z,7.20
2022-11-05T20:16:42.751Z,7.00
2022-11-05T20:19:12.989Z,7.00
2022-11-05T20:21:39.679Z,7.10
2022-11-05T20:24:07.179Z,6.90
2022-11-05T20:26:34.256Z,7.00
2022-11-05T20:29:00.909Z,7.00
2022-11-05T20:31:27.605Z,7.00
2022-11-05T20:33:54.476Z,6.80
2022-11-05T20:36:23.534Z,6.80
2022-11-05T20:38:51.801Z,6.80
2022-11-05T20:41:18.902Z,6.80
2022-11-05T20:43:46.836Z,6.90
2022-11-05T20:46:15.831Z,7.00
2022-11-05T20:48:43.338Z,7.00
2022-11-05T20:51:15.709Z,6.90
2022-11-05T20:53:43.230Z,6.70
2022-11-05T20:56:27.096Z,6.90
2022-11-05T20:58:57.765Z,6.90
2022-11-05T21:01:26.242Z,6.90
2022-11-05T21:03:53.304Z,6.90
2022-11-05T21:06:19.993Z,6.80
2022-11-05T21:08:48.066Z,6.90
2022-11-05T21:11:14.765Z,7.00
2022-11-05T21:13:41.653Z,6.90
2022-11-05T21:16:14.025Z,6.70
2022-11-05T21:18:44.226Z,6.90
2022-11-05T21:21:15.060Z,6.90
2022-11-05T21:23:41.931Z,6.90
2022-11-05T21:26:11.440Z,6.90
2022-11-05T21:28:39.798Z,6.90
2022-11-05T21:31:07.674Z,7.00
2022-11-05T21:33:34.778Z,7.00
2022-11-05T21:36:09.948Z,7.00
2022-11-05T21:38:37.009Z,7.00
2022-11-05T21:41:04.943Z,7.00
2022-11-05T21:43:31.675Z,7.00
2022-11-05T21:46:01.772Z,7.00
2022-11-05T21:48:28.558Z,7.00
2022-11-05T21:51:13.734Z,7.00
2022-11-05T21:53:59.196Z,7.00
2022-11-05T21:56:45.101Z,7.00
2022-11-05T21:59:34.473Z,7.00
2022-11-05T22:02:01.599Z,6.90
2022-11-05T22:04:36.900Z,6.80
2022-11-05T22:07:05.267Z,6.90
2022-11-05T22:09:32.311Z,6.80
2022-11-05T22:11:59.739Z,6.80
2022-11-05T22:14:26.936Z,6.70
2022-11-05T22:16:54.147Z,6.70
2022-11-05T22:19:21.593Z,6.60
2022-11-05T22:21:48.654Z,6.70
2022-11-05T22:24:15.945Z,6.70
2022-11-05T22:26:43.717Z,6.70
2022-11-05T22:29:10.620Z,6.60
2022-11-05T22:31:37.346Z,6.60
2022-11-05T22:34:05.396Z,6.60
2022-11-05T22:36:33.257Z,6.50
2022-11-05T22:39:00.149Z,6.40
2022-11-05T22:41:26.804Z,6.30
2022-11-05T22:43:53.489Z,6.30
2022-11-05T22:46:22.872Z,6.30
2022-11-05T22:48:50.199Z,6.30
2022-11-05T22:51:22.475Z,6.30
2022-11-05T22:53:49.489Z,6.30
2022-11-05T22:56:22.045Z,6.30
2022-11-05T22:58:49.718Z,6.30
2022-11-05T23:01:17.337Z,6.30
2022-11-05T23:03:46.319Z,6.20
2022-11-05T23:06:40.244Z,6.20
2022-11-05T23:09:39.679Z,6.10
2022-11-05T23:12:09.449Z,6.20
2022-11-05T23:14:36.716Z,6.20
2022-11-05T23:17:22.424Z,6.10
2022-11-05T23:20:08.027Z,6.20
2022-11-05T23:22:53.328Z,6.20
2022-11-05T23:25:22.013Z,6.20
2022-11-05T23:27:51.130Z,6.20
2022-11-05T23:30:26.134Z,6.00
2022-11-05T23:32:53.137Z,6.10
2022-11-05T23:35:42.755Z,6.20
2022-11-05T23:38:28.211Z,6.20
2022-11-05T23:41:21.376Z,6.20
2022-11-05T23:44:26.663Z,6.10
2022-11-05T23:47:11.766Z,6.00
2022-11-05T23:49:38.394Z,6.10
2022-11-05T23:52:05.193Z,6.10
2022-11-05T23:54:31.860Z,6.10
2022-11-05T23:56:58.530Z,6.10
2022-11-05T23:59:25.165Z,6.10
